sensor_id;sensor_type;location;lat;lon;timestamp;temperature;humidity
2571;DHT22;1295;51.130;6.732;2024-02-23T00:00:50;7.60;99.90
2571;DHT22;1295;51.130;6.732;2024-02-23T00:03:15;7.60;99.90
2571;DHT22;1295;51.130;6.732;2024-02-23T00:05:41;7.80;99.90
2571;DHT22;1295;51.130;6.732;2024-02-23T00:08:07;7.90;99.90
2571;DHT22;1295;51.130;6.732;2024-02-23T00:10:32;7.60;99.90
2571;DHT22;1295;51.130;6.732;2024-02-23T00:12:58;7.80;99.90
2571;DHT22;1295;51.130;6.732;2024-02-23T00:15:23;7.70;99.90
2571;DHT22;1295;51.130;6.732;2024-02-23T00:17:49;7.20;99.90
2571;DHT22;1295;51.130;6.732;2024-02-23T00:20:15;7.40;99.90
2571;DHT22;1295;51.130;6.732;2024-02-23T00:22:40;7.70;99.90
2571;DHT22;1295;51.130;6.732;2024-02-23T00:25:06;7.60;99.90
2571;DHT22;1295;51.130;6.732;2024-02-23T00:27:32;7.90;99.90
2571;DHT22;1295;51.130;6.732;2024-02-23T00:29:57;7.80;99.90
2571;DHT22;1295;51.130;6.732;2024-02-23T00:32:23;7.60;99.90
2571;DHT22;1295;51.130;6.732;2024-02-23T00:34:49;7.60;99.90
2571;DHT22;1295;51.130;6.732;2024-02-23T00:37:15;7.60;99.90
2571;DHT22;1295;51.130;6.732;2024-02-23T00:39:40;7.60;99.90
2571;DHT22;1295;51.130;6.732;2024-02-23T00:42:06;7.80;99.90
2571;DHT22;1295;51.130;6.732;2024-02-23T00:44:32;7.70;99.90
2571;DHT22;1295;51.130;6.732;2024-02-23T00:46:58;7.70;99.90
2571;DHT22;1295;51.130;6.732;2024-02-23T00:49:23;8.10;99.90
2571;DHT22;1295;51.130;6.732;2024-02-23T00:51:49;8.20;99.90
2571;DHT22;1295;51.130;6.732;2024-02-23T00:54:15;7.60;99.90
2571;DHT22;1295;51.130;6.732;2024-02-23T00:56:40;7.60;99.90
2571;DHT22;1295;51.130;6.732;2024-02-23T00:59:06;7.50;99.90
2571;DHT22;1295;51.130;6.732;2024-02-23T01:01:32;7.60;99.90
2571;DHT22;1295;51.130;6.732;2024-02-23T01:03:57;7.80;99.90
2571;DHT22;1295;51.130;6.732;2024-02-23T01:06:23;7.80;99.90
2571;DHT22;1295;51.130;6.732;2024-02-23T01:08:49;8.10;99.90
2571;DHT22;1295;51.130;6.732;2024-02-23T01:11:14;7.70;99.90
2571;DHT22;1295;51.130;6.732;2024-02-23T01:13:40;7.60;99.90
2571;DHT22;1295;51.130;6.732;2024-02-23T01:16:06;7.40;99.90
2571;DHT22;1295;51.130;6.732;2024-02-23T01:18:31;7.50;99.90
2571;DHT22;1295;51.130;6.732;2024-02-23T01:20:57;7.60;99.90
2571;DHT22;1295;51.130;6.732;2024-02-23T01:23:23;7.70;99.90
2571;DHT22;1295;51.130;6.732;2024-02-23T01:25:49;7.70;99.90
2571;DHT22;1295;51.130;6.732;2024-02-23T01:28:14;7.30;99.90
2571;DHT22;1295;51.130;6.732;2024-02-23T01:30:40;7.20;99.90
2571;DHT22;1295;51.130;6.732;2024-02-23T01:33:06;7.30;99.90
2571;DHT22;1295;51.130;6.732;2024-02-23T01:35:31;7.40;99.90
2571;DHT22;1295;51.130;6.732;2024-02-23T01:37:57;7.40;99.90
2571;DHT22;1295;51.130;6.732;2024-02-23T01:40:22;7.60;99.90
2571;DHT22;1295;51.130;6.732;2024-02-23T01:42:48;7.50;99.90
2571;DHT22;1295;51.130;6.732;2024-02-23T01:45:14;7.60;99.90
2571;DHT22;1295;51.130;6.732;2024-02-23T01:47:40;7.60;99.90
2571;DHT22;1295;51.130;6.732;2024-02-23T01:50:06;7.70;99.90
2571;DHT22;1295;51.130;6.732;2024-02-23T01:52:32;7.50;99.90
2571;DHT22;1295;51.130;6.732;2024-02-23T01:54:58;7.50;99.90
2571;DHT22;1295;51.130;6.732;2024-02-23T01:57:24;7.50;99.90
2571;DHT22;1295;51.130;6.732;2024-02-23T01:59:49;7.20;99.90
2571;DHT22;1295;51.130;6.732;2024-02-23T02:02:15;7.30;99.90
2571;DHT22;1295;51.130;6.732;2024-02-23T02:04:41;7.30;99.90
2571;DHT22;1295;51.130;6.732;2024-02-23T02:07:07;7.40;99.90
2571;DHT22;1295;51.130;6.732;2024-02-23T02:09:33;7.30;99.90
2571;DHT22;1295;51.130;6.732;2024-02-23T02:11:59;7.40;99.90
2571;DHT22;1295;51.130;6.732;2024-02-23T02:14:25;7.00;99.90
2571;DHT22;1295;51.130;6.732;2024-02-23T02:16:50;7.10;99.90
2571;DHT22;1295;51.130;6.732;2024-02-23T02:19:16;7.20;99.90
2571;DHT22;1295;51.130;6.732;2024-02-23T02:21:41;7.10;99.90
2571;DHT22;1295;51.130;6.732;2024-02-23T02:24:07;7.10;99.90
2571;DHT22;1295;51.130;6.732;2024-02-23T02:26:34;7.40;99.90
2571;DHT22;1295;51.130;6.732;2024-02-23T02:28:58;7.30;99.90
2571;DHT22;1295;51.130;6.732;2024-02-23T02:31:24;7.50;99.90
2571;DHT22;1295;51.130;6.732;2024-02-23T02:33:50;7.00;99.90
2571;DHT22;1295;51.130;6.732;2024-02-23T02:36:16;7.00;99.90
2571;DHT22;1295;51.130;6.732;2024-02-23T02:38:41;7.00;99.90
2571;DHT22;1295;51.130;6.732;2024-02-23T02:41:08;7.10;99.90
2571;DHT22;1295;51.130;6.732;2024-02-23T02:43:33;7.00;99.90
2571;DHT22;1295;51.130;6.732;2024-02-23T02:45:58;7.10;99.90
2571;DHT22;1295;51.130;6.732;2024-02-23T02:48:24;7.30;99.90
2571;DHT22;1295;51.130;6.732;2024-02-23T02:50:50;7.40;99.90
2571;DHT22;1295;51.130;6.732;2024-02-23T02:53:15;7.30;99.90
2571;DHT22;1295;51.130;6.732;2024-02-23T02:55:41;7.10;99.90
2571;DHT22;1295;51.130;6.732;2024-02-23T02:58:06;7.20;99.90
2571;DHT22;1295;51.130;6.732;2024-02-23T03:00:33;7.10;99.90
2571;DHT22;1295;51.130;6.732;2024-02-23T03:02:58;7.10;99.90
2571;DHT22;1295;51.130;6.732;2024-02-23T03:05:25;7.20;99.90
2571;DHT22;1295;51.130;6.732;2024-02-23T03:07:50;7.20;99.90
2571;DHT22;1295;51.130;6.732;2024-02-23T03:10:16;7.30;99.90
2571;DHT22;1295;51.130;6.732;2024-02-23T03:12:41;7.00;99.90
2571;DHT22;1295;51.130;6.732;2024-02-23T03:15:08;7.20;99.90
2571;DHT22;1295;51.130;6.732;2024-02-23T03:17:34;7.30;99.90
2571;DHT22;1295;51.130;6.732;2024-02-23T03:20:00;7.30;99.90
2571;DHT22;1295;51.130;6.732;2024-02-23T03:22:26;6.90;99.90
2571;DHT22;1295;51.130;6.732;2024-02-23T03:24:51;6.60;99.90
2571;DHT22;1295;51.130;6.732;2024-02-23T03:27:17;6.90;99.90
2571;DHT22;1295;51.130;6.732;2024-02-23T03:29:43;6.70;99.90
2571;DHT22;1295;51.130;6.732;2024-02-23T03:32:08;6.80;99.90
2571;DHT22;1295;51.130;6.732;2024-02-23T03:34:35;6.90;99.90
2571;DHT22;1295;51.130;6.732;2024-02-23T03:36:59;6.80;99.90
2571;DHT22;1295;51.130;6.732;2024-02-23T03:39:25;7.00;99.90
2571;DHT22;1295;51.130;6.732;2024-02-23T03:41:51;6.80;99.90
2571;DHT22;1295;51.130;6.732;2024-02-23T03:44:16;7.00;99.90
2571;DHT22;1295;51.130;6.732;2024-02-23T03:46:42;7.30;99.90
2571;DHT22;1295;51.130;6.732;2024-02-23T03:49:08;7.10;99.90
2571;DHT22;1295;51.130;6.732;2024-02-23T03:51:33;6.70;99.90
2571;DHT22;1295;51.130;6.732;2024-02-23T03:53:59;6.60;99.90
2571;DHT22;1295;51.130;6.732;2024-02-23T03:56:25;7.00;99.90
2571;DHT22;1295;51.130;6.732;2024-02-23T03:58:51;6.90;99.90
2571;DHT22;1295;51.130;6.732;2024-02-23T04:01:17;6.90;99.90
2571;DHT22;1295;51.130;6.732;2024-02-23T04:03:42;7.10;99.90
2571;DHT22;1295;51.130;6.732;2024-02-23T04:06:09;6.90;99.90
2571;DHT22;1295;51.130;6.732;2024-02-23T04:08:34;6.90;99.90
2571;DHT22;1295;51.130;6.732;2024-02-23T04:11:00;6.60;99.90
2571;DHT22;1295;51.130;6.732;2024-02-23T04:13:25;6.90;99.90
2571;DHT22;1295;51.130;6.732;2024-02-23T04:15:51;6.80;99.90
2571;DHT22;1295;51.130;6.732;2024-02-23T04:18:17;6.70;99.90
2571;DHT22;1295;51.130;6.732;2024-02-23T04:20:42;6.40;99.90
2571;DHT22;1295;51.130;6.732;2024-02-23T04:23:08;6.70;99.90
2571;DHT22;1295;51.130;6.732;2024-02-23T04:25:33;6.70;99.90
2571;DHT22;1295;51.130;6.732;2024-02-23T04:27:59;6.70;99.90
2571;DHT22;1295;51.130;6.732;2024-02-23T04:30:25;6.80;99.90
2571;DHT22;1295;51.130;6.732;2024-02-23T04:32:50;6.90;99.90
2571;DHT22;1295;51.130;6.732;2024-02-23T04:35:16;6.80;99.90
2571;DHT22;1295;51.130;6.732;2024-02-23T04:37:43;6.50;99.90
2571;DHT22;1295;51.130;6.732;2024-02-23T04:40:09;6.60;99.90
2571;DHT22;1295;51.130;6.732;2024-02-23T04:42:35;6.50;99.90
2571;DHT22;1295;51.130;6.732;2024-02-23T04:45:00;6.70;99.90
2571;DHT22;1295;51.130;6.732;2024-02-23T04:47:26;6.90;99.90
2571;DHT22;1295;51.130;6.732;2024-02-23T04:49:52;7.10;99.90
2571;DHT22;1295;51.130;6.732;2024-02-23T04:52:18;7.00;99.90
2571;DHT22;1295;51.130;6.732;2024-02-23T04:54:43;7.10;99.90
2571;DHT22;1295;51.130;6.732;2024-02-23T04:57:09;6.80;99.90
2571;DHT22;1295;51.130;6.732;2024-02-23T04:59:34;6.70;99.90
2571;DHT22;1295;51.130;6.732;2024-02-23T05:02:00;6.80;99.90
2571;DHT22;1295;51.130;6.732;2024-02-23T05:04:26;6.90;99.90
2571;DHT22;1295;51.130;6.732;2024-02-23T05:06:51;7.00;99.90
2571;DHT22;1295;51.130;6.732;2024-02-23T05:09:17;6.90;99.90
2571;DHT22;1295;51.130;6.732;2024-02-23T05:11:42;6.90;99.90
2571;DHT22;1295;51.130;6.732;2024-02-23T05:14:08;6.80;99.90
2571;DHT22;1295;51.130;6.732;2024-02-23T05:16:34;6.70;99.90
2571;DHT22;1295;51.130;6.732;2024-02-23T05:18:59;7.00;99.90
2571;DHT22;1295;51.130;6.732;2024-02-23T05:21:25;6.80;99.90
2571;DHT22;1295;51.130;6.732;2024-02-23T05:23:50;7.00;99.90
2571;DHT22;1295;51.130;6.732;2024-02-23T05:26:16;7.00;99.90
2571;DHT22;1295;51.130;6.732;2024-02-23T05:28:42;6.90;99.90
2571;DHT22;1295;51.130;6.732;2024-02-23T05:31:09;6.50;99.90
2571;DHT22;1295;51.130;6.732;2024-02-23T05:33:33;6.40;99.90
2571;DHT22;1295;51.130;6.732;2024-02-23T05:35:59;6.70;99.90
2571;DHT22;1295;51.130;6.732;2024-02-23T05:38:25;6.70;99.90
2571;DHT22;1295;51.130;6.732;2024-02-23T05:40:50;6.50;99.90
2571;DHT22;1295;51.130;6.732;2024-02-23T05:43:17;6.40;99.90
2571;DHT22;1295;51.130;6.732;2024-02-23T05:45:42;6.40;99.90
2571;DHT22;1295;51.130;6.732;2024-02-23T05:48:08;6.30;99.90
2571;DHT22;1295;51.130;6.732;2024-02-23T05:50:34;6.10;99.90
2571;DHT22;1295;51.130;6.732;2024-02-23T05:52:59;6.40;99.90
2571;DHT22;1295;51.130;6.732;2024-02-23T05:55:25;6.40;99.90
2571;DHT22;1295;51.130;6.732;2024-02-23T05:57:50;6.40;99.90
2571;DHT22;1295;51.130;6.732;2024-02-23T06:00:17;6.70;99.90
2571;DHT22;1295;51.130;6.732;2024-02-23T06:02:44;7.00;99.90
2571;DHT22;1295;51.130;6.732;2024-02-23T06:05:09;6.60;99.90
2571;DHT22;1295;51.130;6.732;2024-02-23T06:07:35;6.90;99.90
2571;DHT22;1295;51.130;6.732;2024-02-23T06:10:01;6.50;99.90
2571;DHT22;1295;51.130;6.732;2024-02-23T06:12:26;6.90;99.90
2571;DHT22;1295;51.130;6.732;2024-02-23T06:14:52;7.00;99.90
2571;DHT22;1295;51.130;6.732;2024-02-23T06:17:17;6.70;99.90
2571;DHT22;1295;51.130;6.732;2024-02-23T06:19:43;6.80;99.90
2571;DHT22;1295;51.130;6.732;2024-02-23T06:22:09;7.00;99.90
2571;DHT22;1295;51.130;6.732;2024-02-23T06:24:34;6.90;99.90
2571;DHT22;1295;51.130;6.732;2024-02-23T06:27:00;7.20;99.90
2571;DHT22;1295;51.130;6.732;2024-02-23T06:29:25;6.70;99.90
2571;DHT22;1295;51.130;6.732;2024-02-23T06:31:51;6.50;99.90
2571;DHT22;1295;51.130;6.732;2024-02-23T06:34:17;6.70;99.90
2571;DHT22;1295;51.130;6.732;2024-02-23T06:36:43;7.80;99.90
2571;DHT22;1295;51.130;6.732;2024-02-23T06:39:09;8.00;99.90
2571;DHT22;1295;51.130;6.732;2024-02-23T06:41:35;7.90;99.90
2571;DHT22;1295;51.130;6.732;2024-02-23T06:44:01;7.80;99.90
2571;DHT22;1295;51.130;6.732;2024-02-23T06:46:27;7.80;99.90
2571;DHT22;1295;51.130;6.732;2024-02-23T06:48:59;7.30;99.90
2571;DHT22;1295;51.130;6.732;2024-02-23T06:51:25;7.70;99.90
2571;DHT22;1295;51.130;6.732;2024-02-23T06:53:51;7.70;99.90
2571;DHT22;1295;51.130;6.732;2024-02-23T06:56:16;7.90;99.90
2571;DHT22;1295;51.130;6.732;2024-02-23T06:58:42;7.80;99.90
2571;DHT22;1295;51.130;6.732;2024-02-23T07:01:08;8.00;99.90
2571;DHT22;1295;51.130;6.732;2024-02-23T07:03:33;8.00;99.90
2571;DHT22;1295;51.130;6.732;2024-02-23T07:05:59;7.40;99.90
2571;DHT22;1295;51.130;6.732;2024-02-23T07:08:25;7.40;99.90
2571;DHT22;1295;51.130;6.732;2024-02-23T07:10:51;6.70;99.90
2571;DHT22;1295;51.130;6.732;2024-02-23T07:13:17;6.70;99.90
2571;DHT22;1295;51.130;6.732;2024-02-23T07:15:43;6.80;99.90
2571;DHT22;1295;51.130;6.732;2024-02-23T07:18:08;6.30;99.90
2571;DHT22;1295;51.130;6.732;2024-02-23T07:20:35;6.50;99.90
2571;DHT22;1295;51.130;6.732;2024-02-23T07:23:00;6.40;99.90
2571;DHT22;1295;51.130;6.732;2024-02-23T07:25:26;6.40;99.90
2571;DHT22;1295;51.130;6.732;2024-02-23T07:27:52;6.40;99.90
2571;DHT22;1295;51.130;6.732;2024-02-23T07:30:17;6.30;99.90
2571;DHT22;1295;51.130;6.732;2024-02-23T07:32:43;6.60;99.90
2571;DHT22;1295;51.130;6.732;2024-02-23T07:35:10;6.50;99.90
2571;DHT22;1295;51.130;6.732;2024-02-23T07:37:36;6.50;99.90
2571;DHT22;1295;51.130;6.732;2024-02-23T07:40:01;6.80;99.90
2571;DHT22;1295;51.130;6.732;2024-02-23T07:42:27;6.70;99.90
2571;DHT22;1295;51.130;6.732;2024-02-23T07:44:53;7.00;99.90
2571;DHT22;1295;51.130;6.732;2024-02-23T07:47:19;6.90;99.90
2571;DHT22;1295;51.130;6.732;2024-02-23T07:49:45;6.90;99.90
2571;DHT22;1295;51.130;6.732;2024-02-23T07:52:10;7.00;99.90
2571;DHT22;1295;51.130;6.732;2024-02-23T07:54:36;6.70;99.90
2571;DHT22;1295;51.130;6.732;2024-02-23T07:57:03;6.70;99.90
2571;DHT22;1295;51.130;6.732;2024-02-23T07:59:29;6.60;99.90
2571;DHT22;1295;51.130;6.732;2024-02-23T08:01:54;6.90;99.90
2571;DHT22;1295;51.130;6.732;2024-02-23T08:04:20;7.00;99.90
2571;DHT22;1295;51.130;6.732;2024-02-23T08:06:45;6.90;99.90
2571;DHT22;1295;51.130;6.732;2024-02-23T08:09:11;6.90;99.90
2571;DHT22;1295;51.130;6.732;2024-02-23T08:11:37;6.90;99.90
2571;DHT22;1295;51.130;6.732;2024-02-23T08:14:03;6.90;99.90
2571;DHT22;1295;51.130;6.732;2024-02-23T08:16:29;6.90;99.90
2571;DHT22;1295;51.130;6.732;2024-02-23T08:18:54;7.10;99.90
2571;DHT22;1295;51.130;6.732;2024-02-23T08:21:21;7.60;99.90
2571;DHT22;1295;51.130;6.732;2024-02-23T08:23:46;7.60;99.90
2571;DHT22;1295;51.130;6.732;2024-02-23T08:26:12;7.80;99.90
2571;DHT22;1295;51.130;6.732;2024-02-23T08:28:38;7.80;99.90
2571;DHT22;1295;51.130;6.732;2024-02-23T08:31:03;7.70;99.90
2571;DHT22;1295;51.130;6.732;2024-02-23T08:33:29;7.70;99.90
2571;DHT22;1295;51.130;6.732;2024-02-23T08:35:54;7.70;99.90
2571;DHT22;1295;51.130;6.732;2024-02-23T08:38:20;7.50;99.90
2571;DHT22;1295;51.130;6.732;2024-02-23T08:40:46;7.70;99.90
2571;DHT22;1295;51.130;6.732;2024-02-23T08:43:11;8.40;99.90
2571;DHT22;1295;51.130;6.732;2024-02-23T08:45:37;8.50;99.90
2571;DHT22;1295;51.130;6.732;2024-02-23T08:48:04;8.90;99.90
2571;DHT22;1295;51.130;6.732;2024-02-23T08:50:29;8.90;99.90
2571;DHT22;1295;51.130;6.732;2024-02-23T08:52:56;8.40;99.90
2571;DHT22;1295;51.130;6.732;2024-02-23T08:55:21;8.40;99.90
2571;DHT22;1295;51.130;6.732;2024-02-23T08:57:47;8.10;99.90
2571;DHT22;1295;51.130;6.732;2024-02-23T09:00:13;8.10;99.90
2571;DHT22;1295;51.130;6.732;2024-02-23T09:02:39;8.20;99.90
2571;DHT22;1295;51.130;6.732;2024-02-23T09:05:06;8.60;99.90
2571;DHT22;1295;51.130;6.732;2024-02-23T09:07:31;8.60;99.90
2571;DHT22;1295;51.130;6.732;2024-02-23T09:09:58;8.50;99.90
2571;DHT22;1295;51.130;6.732;2024-02-23T09:12:23;8.50;99.90
2571;DHT22;1295;51.130;6.732;2024-02-23T09:14:49;8.50;99.90
2571;DHT22;1295;51.130;6.732;2024-02-23T09:17:15;8.40;99.90
2571;DHT22;1295;51.130;6.732;2024-02-23T09:19:40;8.50;99.90
2571;DHT22;1295;51.130;6.732;2024-02-23T09:22:06;8.40;99.90
2571;DHT22;1295;51.130;6.732;2024-02-23T09:24:31;8.60;99.90
2571;DHT22;1295;51.130;6.732;2024-02-23T09:26:57;8.40;99.90
2571;DHT22;1295;51.130;6.732;2024-02-23T09:29:23;8.50;99.90
2571;DHT22;1295;51.130;6.732;2024-02-23T09:31:48;8.40;99.90
2571;DHT22;1295;51.130;6.732;2024-02-23T09:34:14;8.40;99.90
2571;DHT22;1295;51.130;6.732;2024-02-23T09:36:39;8.40;99.90
2571;DHT22;1295;51.130;6.732;2024-02-23T09:39:05;8.40;99.90
2571;DHT22;1295;51.130;6.732;2024-02-23T09:41:31;8.10;99.90
2571;DHT22;1295;51.130;6.732;2024-02-23T09:43:58;8.10;99.90
2571;DHT22;1295;51.130;6.732;2024-02-23T09:46:23;8.10;99.90
2571;DHT22;1295;51.130;6.732;2024-02-23T09:48:49;8.00;99.90
2571;DHT22;1295;51.130;6.732;2024-02-23T09:51:15;8.00;99.90
2571;DHT22;1295;51.130;6.732;2024-02-23T09:53:40;8.00;99.90
2571;DHT22;1295;51.130;6.732;2024-02-23T09:56:06;8.10;99.90
2571;DHT22;1295;51.130;6.732;2024-02-23T09:58:32;8.10;99.90
2571;DHT22;1295;51.130;6.732;2024-02-23T10:00:58;8.10;99.90
2571;DHT22;1295;51.130;6.732;2024-02-23T10:03:27;8.00;99.90
2571;DHT22;1295;51.130;6.732;2024-02-23T10:05:52;8.10;99.90
2571;DHT22;1295;51.130;6.732;2024-02-23T10:08:17;8.10;99.90
2571;DHT22;1295;51.130;6.732;2024-02-23T10:10:45;8.10;99.90
2571;DHT22;1295;51.130;6.732;2024-02-23T10:13:09;8.20;99.90
2571;DHT22;1295;51.130;6.732;2024-02-23T10:15:35;8.60;99.90
2571;DHT22;1295;51.130;6.732;2024-02-23T10:18:01;9.00;99.90
2571;DHT22;1295;51.130;6.732;2024-02-23T10:20:27;8.90;99.90
2571;DHT22;1295;51.130;6.732;2024-02-23T10:22:53;9.00;99.90
2571;DHT22;1295;51.130;6.732;2024-02-23T10:25:18;8.90;99.90
2571;DHT22;1295;51.130;6.732;2024-02-23T10:27:44;8.80;99.90
2571;DHT22;1295;51.130;6.732;2024-02-23T10:30:11;8.90;99.90
2571;DHT22;1295;51.130;6.732;2024-02-23T10:32:38;8.90;99.90
2571;DHT22;1295;51.130;6.732;2024-02-23T10:35:03;8.80;99.90
2571;DHT22;1295;51.130;6.732;2024-02-23T10:37:29;8.70;99.90
2571;DHT22;1295;51.130;6.732;2024-02-23T10:39:57;8.60;99.90
2571;DHT22;1295;51.130;6.732;2024-02-23T10:42:22;8.60;99.90
2571;DHT22;1295;51.130;6.732;2024-02-23T10:44:47;8.50;99.90
2571;DHT22;1295;51.130;6.732;2024-02-23T10:47:13;8.50;99.90
2571;DHT22;1295;51.130;6.732;2024-02-23T10:49:38;8.50;99.90
2571;DHT22;1295;51.130;6.732;2024-02-23T10:52:04;8.40;99.90
2571;DHT22;1295;51.130;6.732;2024-02-23T10:54:31;8.50;99.90
2571;DHT22;1295;51.130;6.732;2024-02-23T10:57:01;8.50;99.90
2571;DHT22;1295;51.130;6.732;2024-02-23T10:59:32;8.40;99.90
2571;DHT22;1295;51.130;6.732;2024-02-23T11:01:58;8.50;99.90
2571;DHT22;1295;51.130;6.732;2024-02-23T11:04:23;8.50;99.90
2571;DHT22;1295;51.130;6.732;2024-02-23T11:06:50;8.40;99.90
2571;DHT22;1295;51.130;6.732;2024-02-23T11:09:15;8.40;99.90
2571;DHT22;1295;51.130;6.732;2024-02-23T11:11:50;8.40;99.90
2571;DHT22;1295;51.130;6.732;2024-02-23T11:14:07;8.40;99.90
2571;DHT22;1295;51.130;6.732;2024-02-23T11:16:33;8.40;99.90
2571;DHT22;1295;51.130;6.732;2024-02-23T11:19:04;8.40;99.90
2571;DHT22;1295;51.130;6.732;2024-02-23T11:21:37;8.50;99.90
2571;DHT22;1295;51.130;6.732;2024-02-23T11:24:04;8.40;99.90
2571;DHT22;1295;51.130;6.732;2024-02-23T11:26:30;8.50;99.90
2571;DHT22;1295;51.130;6.732;2024-02-23T11:28:55;8.50;99.90
2571;DHT22;1295;51.130;6.732;2024-02-23T11:31:22;8.50;99.90
2571;DHT22;1295;51.130;6.732;2024-02-23T11:33:49;8.60;99.90
2571;DHT22;1295;51.130;6.732;2024-02-23T11:36:21;8.60;99.90
2571;DHT22;1295;51.130;6.732;2024-02-23T11:38:40;8.60;99.90
2571;DHT22;1295;51.130;6.732;2024-02-23T11:41:05;8.50;99.90
2571;DHT22;1295;51.130;6.732;2024-02-23T11:43:33;8.50;99.90
2571;DHT22;1295;51.130;6.732;2024-02-23T11:45:57;8.50;99.90
2571;DHT22;1295;51.130;6.732;2024-02-23T11:48:22;8.50;99.90
2571;DHT22;1295;51.130;6.732;2024-02-23T11:50:48;8.50;99.90
2571;DHT22;1295;51.130;6.732;2024-02-23T11:53:13;8.50;99.90
2571;DHT22;1295;51.130;6.732;2024-02-23T11:55:39;8.50;99.90
2571;DHT22;1295;51.130;6.732;2024-02-23T11:58:05;8.50;99.90
2571;DHT22;1295;51.130;6.732;2024-02-23T12:00:30;8.50;99.90
2571;DHT22;1295;51.130;6.732;2024-02-23T12:03:01;8.50;99.90
2571;DHT22;1295;51.130;6.732;2024-02-23T12:05:32;8.50;99.90
2571;DHT22;1295;51.130;6.732;2024-02-23T12:07:58;8.50;99.90
2571;DHT22;1295;51.130;6.732;2024-02-23T12:10:23;8.50;99.90
2571;DHT22;1295;51.130;6.732;2024-02-23T12:12:49;8.60;99.90
2571;DHT22;1295;51.130;6.732;2024-02-23T12:15:15;8.60;99.90
2571;DHT22;1295;51.130;6.732;2024-02-23T12:17:47;8.60;99.90
2571;DHT22;1295;51.130;6.732;2024-02-23T12:20:12;8.50;99.90
2571;DHT22;1295;51.130;6.732;2024-02-23T12:22:38;8.60;99.90
2571;DHT22;1295;51.130;6.732;2024-02-23T12:25:04;8.70;99.90
2571;DHT22;1295;51.130;6.732;2024-02-23T12:27:30;8.70;99.90
2571;DHT22;1295;51.130;6.732;2024-02-23T12:29:55;8.70;99.90
2571;DHT22;1295;51.130;6.732;2024-02-23T12:32:21;8.80;99.90
2571;DHT22;1295;51.130;6.732;2024-02-23T12:34:47;8.80;99.90
2571;DHT22;1295;51.130;6.732;2024-02-23T12:37:15;8.80;99.90
2571;DHT22;1295;51.130;6.732;2024-02-23T12:39:40;8.80;99.90
2571;DHT22;1295;51.130;6.732;2024-02-23T12:42:06;8.80;99.90
2571;DHT22;1295;51.130;6.732;2024-02-23T12:44:32;8.80;99.90
2571;DHT22;1295;51.130;6.732;2024-02-23T12:46:58;8.80;99.90
2571;DHT22;1295;51.130;6.732;2024-02-23T12:49:23;8.80;99.90
2571;DHT22;1295;51.130;6.732;2024-02-23T12:51:49;8.70;99.90
2571;DHT22;1295;51.130;6.732;2024-02-23T12:54:14;8.70;99.90
2571;DHT22;1295;51.130;6.732;2024-02-23T12:56:40;8.90;99.90
2571;DHT22;1295;51.130;6.732;2024-02-23T12:59:06;9.20;99.90
2571;DHT22;1295;51.130;6.732;2024-02-23T13:01:32;10.00;99.90
2571;DHT22;1295;51.130;6.732;2024-02-23T13:03:58;9.90;99.90
2571;DHT22;1295;51.130;6.732;2024-02-23T13:06:23;9.70;99.90
2571;DHT22;1295;51.130;6.732;2024-02-23T13:08:49;9.60;99.90
2571;DHT22;1295;51.130;6.732;2024-02-23T13:11:14;10.40;99.90
2571;DHT22;1295;51.130;6.732;2024-02-23T13:13:40;10.30;99.90
2571;DHT22;1295;51.130;6.732;2024-02-23T13:16:06;9.70;99.90
2571;DHT22;1295;51.130;6.732;2024-02-23T13:18:32;9.70;99.90
2571;DHT22;1295;51.130;6.732;2024-02-23T13:20:58;9.70;99.90
2571;DHT22;1295;51.130;6.732;2024-02-23T13:23:24;9.70;99.90
2571;DHT22;1295;51.130;6.732;2024-02-23T13:25:50;9.70;99.90
2571;DHT22;1295;51.130;6.732;2024-02-23T13:28:16;9.60;99.90
2571;DHT22;1295;51.130;6.732;2024-02-23T13:30:43;9.50;99.90
2571;DHT22;1295;51.130;6.732;2024-02-23T13:33:08;9.50;99.90
2571;DHT22;1295;51.130;6.732;2024-02-23T13:35:34;9.50;99.90
2571;DHT22;1295;51.130;6.732;2024-02-23T13:38:00;9.60;99.90
2571;DHT22;1295;51.130;6.732;2024-02-23T13:40:26;9.60;99.90
2571;DHT22;1295;51.130;6.732;2024-02-23T13:42:51;9.60;99.90
2571;DHT22;1295;51.130;6.732;2024-02-23T13:45:18;9.60;99.90
2571;DHT22;1295;51.130;6.732;2024-02-23T13:47:54;9.70;99.90
2571;DHT22;1295;51.130;6.732;2024-02-23T13:50:10;9.60;99.90
2571;DHT22;1295;51.130;6.732;2024-02-23T13:52:36;9.50;99.90
2571;DHT22;1295;51.130;6.732;2024-02-23T13:55:02;9.50;99.90
2571;DHT22;1295;51.130;6.732;2024-02-23T13:57:28;9.50;99.90
2571;DHT22;1295;51.130;6.732;2024-02-23T13:59:54;9.40;99.90
2571;DHT22;1295;51.130;6.732;2024-02-23T14:02:25;9.30;99.90
2571;DHT22;1295;51.130;6.732;2024-02-23T14:04:50;9.30;99.90
2571;DHT22;1295;51.130;6.732;2024-02-23T14:07:15;9.30;99.90
2571;DHT22;1295;51.130;6.732;2024-02-23T14:09:41;9.30;99.90
2571;DHT22;1295;51.130;6.732;2024-02-23T14:12:07;9.30;99.90
2571;DHT22;1295;51.130;6.732;2024-02-23T14:14:32;9.30;99.90
2571;DHT22;1295;51.130;6.732;2024-02-23T14:16:58;9.30;99.90
2571;DHT22;1295;51.130;6.732;2024-02-23T14:19:24;9.30;99.90
2571;DHT22;1295;51.130;6.732;2024-02-23T14:21:49;9.30;99.90
2571;DHT22;1295;51.130;6.732;2024-02-23T14:24:16;9.30;99.90
2571;DHT22;1295;51.130;6.732;2024-02-23T14:26:42;9.30;99.90
2571;DHT22;1295;51.130;6.732;2024-02-23T14:29:08;9.30;99.90
2571;DHT22;1295;51.130;6.732;2024-02-23T14:31:34;9.80;99.90
2571;DHT22;1295;51.130;6.732;2024-02-23T14:34:00;9.80;99.90
2571;DHT22;1295;51.130;6.732;2024-02-23T14:36:31;9.80;99.90
2571;DHT22;1295;51.130;6.732;2024-02-23T14:39:07;9.80;99.90
2571;DHT22;1295;51.130;6.732;2024-02-23T14:41:33;9.80;99.90
2571;DHT22;1295;51.130;6.732;2024-02-23T14:43:59;9.70;99.90
2571;DHT22;1295;51.130;6.732;2024-02-23T14:46:25;9.60;99.90
2571;DHT22;1295;51.130;6.732;2024-02-23T14:48:51;9.60;99.90
2571;DHT22;1295;51.130;6.732;2024-02-23T14:51:17;9.40;99.90
2571;DHT22;1295;51.130;6.732;2024-02-23T14:53:43;9.40;99.90
2571;DHT22;1295;51.130;6.732;2024-02-23T14:56:08;9.40;99.90
2571;DHT22;1295;51.130;6.732;2024-02-23T14:58:34;9.40;99.90
2571;DHT22;1295;51.130;6.732;2024-02-23T15:00:59;9.30;99.90
2571;DHT22;1295;51.130;6.732;2024-02-23T15:03:25;9.30;99.90
2571;DHT22;1295;51.130;6.732;2024-02-23T15:05:51;9.30;99.90
2571;DHT22;1295;51.130;6.732;2024-02-23T15:08:16;9.30;99.90
2571;DHT22;1295;51.130;6.732;2024-02-23T15:10:42;9.30;99.90
2571;DHT22;1295;51.130;6.732;2024-02-23T15:13:08;9.30;99.90
2571;DHT22;1295;51.130;6.732;2024-02-23T15:15:34;9.20;99.90
2571;DHT22;1295;51.130;6.732;2024-02-23T15:18:00;9.20;99.90
2571;DHT22;1295;51.130;6.732;2024-02-23T15:20:25;9.30;99.90
2571;DHT22;1295;51.130;6.732;2024-02-23T15:22:51;9.20;99.90
2571;DHT22;1295;51.130;6.732;2024-02-23T15:25:16;9.30;99.90
2571;DHT22;1295;51.130;6.732;2024-02-23T15:27:42;9.20;99.90
2571;DHT22;1295;51.130;6.732;2024-02-23T15:30:09;9.20;99.90
2571;DHT22;1295;51.130;6.732;2024-02-23T15:32:36;9.20;99.90
2571;DHT22;1295;51.130;6.732;2024-02-23T15:35:02;9.20;99.90
2571;DHT22;1295;51.130;6.732;2024-02-23T15:37:29;9.20;99.90
2571;DHT22;1295;51.130;6.732;2024-02-23T15:39:55;9.00;99.90
2571;DHT22;1295;51.130;6.732;2024-02-23T15:42:20;9.10;99.90
2571;DHT22;1295;51.130;6.732;2024-02-23T15:44:47;8.90;99.90
2571;DHT22;1295;51.130;6.732;2024-02-23T15:47:12;8.80;99.90
2571;DHT22;1295;51.130;6.732;2024-02-23T15:49:39;8.70;99.90
2571;DHT22;1295;51.130;6.732;2024-02-23T15:52:05;8.70;99.90
2571;DHT22;1295;51.130;6.732;2024-02-23T15:54:31;8.80;99.90
2571;DHT22;1295;51.130;6.732;2024-02-23T15:56:57;8.70;99.90
2571;DHT22;1295;51.130;6.732;2024-02-23T15:59:23;8.60;99.90
2571;DHT22;1295;51.130;6.732;2024-02-23T16:01:49;8.60;99.90
2571;DHT22;1295;51.130;6.732;2024-02-23T16:04:15;8.60;99.90
2571;DHT22;1295;51.130;6.732;2024-02-23T16:06:40;8.40;99.90